Observation data for Graham on 11/14/2019      Previous  Date       Current Mesonet Observations  Soil Data  Daily Summary Page  Observations in Plain Language
KGHS 140600Z 32006KT 03/01 A3006 RMK A01 T00330006  RH  084%=      5-min Rain = 0
KGHS 140605Z 32006KT 03/01 A3006 RMK A01 T00320006  RH  084%=      5-min Rain = 0
KGHS 140610Z 31008KT 03/00 A3006 RMK A01 T00290004  RH  084%=      5-min Rain = 0
KGHS 140615Z 31009KT 03/00 A3006 RMK A01 T00260003  RH  086%=      5-min Rain = 0
KGHS 140620Z 31009KT 03/00 A3006 RMK A01 T00260003  RH  086%=      5-min Rain = 0
KGHS 140625Z 31009KT 03/00 A3007 RMK A01 T00250003  RH  086%=      5-min Rain = 0
KGHS 140630Z 31009KT 02/00 A3007 RMK A01 T00240002  RH  086%=      5-min Rain = 0
KGHS 140635Z 31009KT 02/00 A3007 RMK A01 T00230001  RH  087%=      5-min Rain = 0
KGHS 140640Z 31009KT 02/00 A3007 RMK A01 T00230003  RH  087%=      5-min Rain = 0
KGHS 140645Z 31011KT 03/00 A3007 RMK A01 T00250003  RH  086%=      5-min Rain = 0
KGHS 140650Z 30011KT 03/00 A3007 RMK A01 T00260004  RH  087%=      5-min Rain = 0
KGHS 140655Z 30012KT 03/01 A3007 RMK A01 T00300007  RH  086%=      5-min Rain = 0
KGHS 140700Z 30012KT 04/01 A3007 RMK A01 T00350008  RH  084%=      5-min Rain = 0
KGHS 140705Z 30012KT 04/01 A3008 RMK A01 T00360008  RH  083%=      5-min Rain = 0
KGHS 140710Z 31012KT 04/01 A3008 RMK A01 T00370008  RH  083%=      5-min Rain = 0
KGHS 140715Z 31012KT 04/01 A3008 RMK A01 T00380008  RH  082%=      5-min Rain = 0
KGHS 140720Z 32012KT 04/01 A3008 RMK A01 T00380008  RH  082%=      5-min Rain = 0
KGHS 140725Z 32012KT 04/01 A3008 RMK A01 T00380008  RH  082%=      5-min Rain = 0
KGHS 140730Z 32013KT 04/01 A3008 RMK A01 T00390009  RH  082%=      5-min Rain = 0
KGHS 140735Z 32013KT 04/01 A3009 RMK A01 T00390009  RH  082%=      5-min Rain = 0
KGHS 140740Z 32013KT 04/01 A3009 RMK A01 T00380009  RH  082%=      5-min Rain = 0
KGHS 140745Z 33013KT 04/01 A3009 RMK A01 T00370009  RH  083%=      5-min Rain = 0
KGHS 140750Z 33014KT 04/01 A3009 RMK A01 T00360009  RH  084%=      5-min Rain = 0
KGHS 140755Z 34014KT 04/01 A301 RMK A01 T00370009  RH  083%=      5-min Rain = 0
KGHS 140800Z 34014KT 04/01 A301 RMK A01 T00380009  RH  083%=      5-min Rain = 0
KGHS 140805Z 34014KT 04/01 A301 RMK A01 T00380008  RH  082%=      5-min Rain = 0
KGHS 140810Z 34014KT 04/01 A3011 RMK A01 T00350007  RH  083%=      5-min Rain = 0
KGHS 140815Z 34014KT 03/01 A3011 RMK A01 T00330006  RH  084%=      5-min Rain = 0
KGHS 140820Z 34014KT 03/01 A3011 RMK A01 T00320006  RH  084%=      5-min Rain = 0
KGHS 140825Z 34015KT 03/01 A3011 RMK A01 T00340007  RH  084%=      5-min Rain = 0
KGHS 140830Z 35015KT 04/01 A3011 RMK A01 T00350007  RH  083%=      5-min Rain = 0
KGHS 140835Z 34015KT 04/01 A3012 RMK A01 T00360007  RH  083%=      5-min Rain = 0
KGHS 140840Z 35015KT 04/01 A3012 RMK A01 T00360008  RH  083%=      5-min Rain = 0
KGHS 140845Z 35014KT 04/01 A3012 RMK A01 T00370007  RH  082%=      5-min Rain = 0
KGHS 140850Z 35015KT 04/01 A3012 RMK A01 T00360007  RH  082%=      5-min Rain = 0
KGHS 140855Z 36015KT 04/01 A3012 RMK A01 T00360006  RH  082%=      5-min Rain = 0
KGHS 140900Z 36015KT 03/01 A3012 RMK A01 T00340006  RH  082%=      5-min Rain = 0
KGHS 140905Z 36015KT 03/01 A3012 RMK A01 T00320005  RH  083%=      5-min Rain = 0
KGHS 140910Z 36016KT 03/00 A3012 RMK A01 T00310004  RH  084%=      5-min Rain = 0
KGHS 140915Z 36016KT 03/00 A3013 RMK A01 T00290003  RH  084%=      5-min Rain = 0
KGHS 140920Z 00015KT 03/00 A3013 RMK A01 T00280002  RH  084%=      5-min Rain = 0
KGHS 140925Z 00015KT 03/00 A3013 RMK A01 T00260002  RH  085%=      5-min Rain = 0
KGHS 140930Z 00015KT 02/00 A3013 RMK A01 T00240001  RH  085%=      5-min Rain = 0
KGHS 140935Z 00015KT 02/00 A3014 RMK A01 T00230000  RH  086%=      5-min Rain = 0
KGHS 140940Z 00014KT 02/00 A3014 RMK A01 T00230000  RH  086%=      5-min Rain = 0
KGHS 140945Z 01014KT 02/00 A3014 RMK A01 T002200-0  RH  086%=      5-min Rain = 0
KGHS 140950Z 01015KT 02/00 A3014 RMK A01 T00240000  RH  085%=      5-min Rain = 0
KGHS 140955Z 00015KT 03/00 A3014 RMK A01 T002500-0  RH  085%=      5-min Rain = 0
KGHS 141000Z 36013KT 02/00 A3014 RMK A01 T002300-0  RH  085%=      5-min Rain = 0
KGHS 141005Z 36013KT 02/M00 A3014 RMK A01 T00221001  RH  086%=      5-min Rain = 0
KGHS 141010Z 35014KT 02/M00 A3015 RMK A01 T00221002  RH  086%=      5-min Rain = 0
KGHS 141015Z 35013KT 02/M00 A3015 RMK A01 T00211002  RH  086%=      5-min Rain = 0
KGHS 141020Z 36013KT 02/M00 A3015 RMK A01 T00221003  RH  085%=      5-min Rain = 0
KGHS 141025Z 00014KT 02/M00 A3015 RMK A01 T00231003  RH  084%=      5-min Rain = 0
KGHS 141030Z 00014KT 02/M00 A3015 RMK A01 T00231003  RH  084%=      5-min Rain = 0
KGHS 141035Z 01014KT 02/M00 A3016 RMK A01 T00241003  RH  083%=      5-min Rain = 0
KGHS 141040Z 01014KT 02/M00 A3016 RMK A01 T00241003  RH  083%=      5-min Rain = 0
KGHS 141045Z 01014KT 03/M00 A3016 RMK A01 T00251004  RH  082%=      5-min Rain = 0
KGHS 141050Z 01014KT 03/M00 A3016 RMK A01 T00251004  RH  082%=      5-min Rain = 0
KGHS 141055Z 01015KT 03/M00 A3016 RMK A01 T00261004  RH  082%=      5-min Rain = 0
KGHS 141100Z 02016KT 03/M01 A3016 RMK A01 T00271005  RH  081%=      5-min Rain = 0
KGHS 141105Z 02015KT 03/M01 A3016 RMK A01 T00271006  RH  080%=      5-min Rain = 0
KGHS 141110Z 01015KT 03/M01 A3017 RMK A01 T00281007  RH  079%=      5-min Rain = 0
KGHS 141115Z 01015KT 03/M01 A3017 RMK A01 T00281007  RH  079%=      5-min Rain = 0
KGHS 141120Z 01015KT 03/M01 A3017 RMK A01 T00281008  RH  078%=      5-min Rain = 0
KGHS 141125Z 01016KT 03/M01 A3017 RMK A01 T00281009  RH  078%=      5-min Rain = 0
KGHS 141130Z 01016KT 03/M01 A3018 RMK A01 T00271009  RH  078%=      5-min Rain = 0
KGHS 141135Z 01015KT 03/M01 A3018 RMK A01 T00261010  RH  078%=      5-min Rain = 0
KGHS 141140Z 02015KT 03/M01 A3018 RMK A01 T00251010  RH  078%=      5-min Rain = 0
KGHS 141145Z 02016KT 03/M01 A3018 RMK A01 T00251011  RH  078%=      5-min Rain = 0
KGHS 141150Z 02016KT 03/M01 A3018 RMK A01 T00251012  RH  077%=      5-min Rain = 0
KGHS 141155Z 01016KT 03/M01 A3019 RMK A01 T00251012  RH  077%=      5-min Rain = 0
KGHS 141200Z 01015KT 03/M01 A3019 RMK A01 T00251013  RH  077%=      5-min Rain = 0
KGHS 141205Z 01015KT 02/M01 A302 RMK A01 T00241013  RH  077%=      5-min Rain = 0
KGHS 141210Z 01014KT 02/M01 A302 RMK A01 T00231014  RH  078%=      5-min Rain = 0
KGHS 141215Z 01015KT 02/M01 A302 RMK A01 T00221014  RH  078%=      5-min Rain = 0
KGHS 141220Z 01015KT 02/M01 A302 RMK A01 T00211014  RH  078%=      5-min Rain = 0
KGHS 141225Z 01015KT 02/M02 A3021 RMK A01 T00211015  RH  078%=      5-min Rain = 0
KGHS 141230Z 02015KT 02/M02 A3021 RMK A01 T00211015  RH  078%=      5-min Rain = 0
KGHS 141235Z 01016KT 02/M02 A3021 RMK A01 T00221016  RH  076%=      5-min Rain = 0
KGHS 141240Z 01015KT 02/M02 A3022 RMK A01 T00221016  RH  077%=      5-min Rain = 0
KGHS 141245Z 01016KT 02/M02 A3022 RMK A01 T00231017  RH  076%=      5-min Rain = 0
KGHS 141250Z 02016KT 02/M02 A3022 RMK A01 T00241018  RH  074%=      5-min Rain = 0
KGHS 141255Z 02016KT 03/M02 A3023 RMK A01 T00261019  RH  073%=      5-min Rain = 0
KGHS 141300Z 02016KT 03/M02 A3023 RMK A01 T00271021  RH  072%=      5-min Rain = 0
KGHS 141305Z 02016G21KT 03/M02 A3023 RMK A01 T00281022  RH  070%=      5-min Rain = 0
KGHS 141310Z 03018KT 03/M03 A3023 RMK A01 T00311025  RH  067%=      5-min Rain = 0
KGHS 141315Z 03019G24KT 03/M03 A3023 RMK A01 T00331028  RH  064%=      5-min Rain = 0
KGHS 141320Z 03018G24KT 03/M03 A3024 RMK A01 T00341028  RH  064%=      5-min Rain = 0
KGHS 141325Z 03017KT 03/M03 A3024 RMK A01 T00331029  RH  064%=      5-min Rain = 0
KGHS 141330Z 03017G22KT 03/M03 A3025 RMK A01 T00321029  RH  064%=      5-min Rain = 0
KGHS 141335Z 03017G22KT 03/M03 A3025 RMK A01 T00331030  RH  064%=      5-min Rain = 0
KGHS 141340Z 03017G22KT 03/M03 A3026 RMK A01 T00331030  RH  063%=      5-min Rain = 0
KGHS 141345Z 03016G21KT 03/M03 A3026 RMK A01 T00341030  RH  063%=      5-min Rain = 0
KGHS 141350Z 03017G22KT 04/M03 A3027 RMK A01 T00351030  RH  063%=      5-min Rain = 0
KGHS 141355Z 03017G22KT 04/M03 A3027 RMK A01 T00361029  RH  063%=      5-min Rain = 0
KGHS 141400Z 03017G23KT 04/M03 A3028 RMK A01 T00371028  RH  063%=      5-min Rain = 0
KGHS 141405Z 03015G21KT 04/M03 A3028 RMK A01 T00381026  RH  064%=      5-min Rain = 0
KGHS 141410Z 03016G21KT 04/M03 A3029 RMK A01 T00391025  RH  063%=      5-min Rain = 0
KGHS 141415Z 03017G22KT 04/M03 A3029 RMK A01 T00401025  RH  063%=      5-min Rain = 0
KGHS 141420Z 03015G20KT 04/M02 A303 RMK A01 T00411024  RH  063%=      5-min Rain = 0
KGHS 141425Z 03015G20KT 04/M02 A303 RMK A01 T00431021  RH  063%=      5-min Rain = 0
KGHS 141430Z 04014G19KT 05/M02 A3031 RMK A01 T00451018  RH  064%=      5-min Rain = 0
KGHS 141435Z 04015G23KT 05/M02 A3031 RMK A01 T00461017  RH  064%=      5-min Rain = 0
KGHS 141440Z 04017G23KT 05/M02 A3031 RMK A01 T00461017  RH  064%=      5-min Rain = 0
KGHS 141445Z 04017G23KT 05/M02 A3032 RMK A01 T00461017  RH  064%=      5-min Rain = 0
KGHS 141450Z 04018G24KT 05/M02 A3032 RMK A01 T00471017  RH  064%=      5-min Rain = 0
KGHS 141455Z 04017G22KT 05/M02 A3032 RMK A01 T00491018  RH  063%=      5-min Rain = 0
KGHS 141500Z 04017G23KT 05/M02 A3033 RMK A01 T00491019  RH  062%=      5-min Rain = 0
KGHS 141505Z 04017G24KT 05/M02 A3033 RMK A01 T00511018  RH  062%=      5-min Rain = 0
KGHS 141510Z 04017G24KT 05/M02 A3033 RMK A01 T00511015  RH  063%=      5-min Rain = 0
KGHS 141515Z 04016G23KT 05/M01 A3034 RMK A01 T00531012  RH  064%=      5-min Rain = 0
KGHS 141520Z 05017G24KT 05/M01 A3034 RMK A01 T00541011  RH  064%=      5-min Rain = 0
KGHS 141525Z 05015G20KT 06/M01 A3034 RMK A01 T00561008  RH  064%=      5-min Rain = 0
KGHS 141530Z 04018G23KT 06/M01 A3034 RMK A01 T00571008  RH  064%=      5-min Rain = 0
KGHS 141535Z 05016KT 06/M01 A3034 RMK A01 T00591005  RH  064%=      5-min Rain = 0
KGHS 141540Z 04017KT 06/M01 A3035 RMK A01 T00611005  RH  064%=      5-min Rain = 0
KGHS 141545Z 04018KT 06/M00 A3035 RMK A01 T00621004  RH  063%=      5-min Rain = 0
KGHS 141550Z 05017KT 06/M00 A3035 RMK A01 T00631003  RH  063%=      5-min Rain = 0
KGHS 141555Z 04019KT 06/M00 A3035 RMK A01 T00641003  RH  063%=      5-min Rain = 0
KGHS 141600Z 04018KT 07/M00 A3035 RMK A01 T00651001  RH  063%=      5-min Rain = 0
KGHS 141605Z 05015KT 07/00 A3036 RMK A01 T00680000  RH  063%=      5-min Rain = 0
KGHS 141610Z 05019G24KT 07/00 A3036 RMK A01 T007000-0  RH  062%=      5-min Rain = 0
KGHS 141615Z 05021G29KT 07/00 A3036 RMK A01 T006900-0  RH  062%=      5-min Rain = 0
KGHS 141620Z 05019G25KT 07/00 A3036 RMK A01 T00700000  RH  062%=      5-min Rain = 0
KGHS 141625Z 05020G27KT 07/00 A3036 RMK A01 T00720001  RH  061%=      5-min Rain = 0
KGHS 141630Z 05018G23KT 07/00 A3036 RMK A01 T00730001  RH  061%=      5-min Rain = 0
KGHS 141635Z 05019G28KT 08/00 A3037 RMK A01 T00760001  RH  060%=      5-min Rain = 0
KGHS 141640Z 05021G27KT 08/M00 A3037 RMK A01 T00751001  RH  059%=      5-min Rain = 0
KGHS 141645Z 06019G26KT 08/M00 A3037 RMK A01 T00761001  RH  059%=      5-min Rain = 0
KGHS 141650Z 06020KT 08/M00 A3037 RMK A01 T00771002  RH  058%=      5-min Rain = 0
KGHS 141655Z 05018G23KT 08/M00 A3038 RMK A01 T00771001  RH  058%=      5-min Rain = 0
KGHS 141700Z 06017G22KT 08/00 A3038 RMK A01 T00790000  RH  058%=      5-min Rain = 0
KGHS 141705Z 05018G23KT 08/00 A3038 RMK A01 T00800000  RH  058%=      5-min Rain = 0
KGHS 141710Z 04017G24KT 08/M00 A3038 RMK A01 T00811001  RH  057%=      5-min Rain = 0
KGHS 141715Z 05015G21KT 08/00 A3038 RMK A01 T008300-0  RH  056%=      5-min Rain = 0
KGHS 141720Z 05016G24KT 09/M00 A3038 RMK A01 T00861001  RH  055%=      5-min Rain = 0
KGHS 141725Z 04018G24KT 09/M00 A3038 RMK A01 T00851003  RH  055%=      5-min Rain = 0
KGHS 141730Z 06018G24KT 09/M00 A3038 RMK A01 T00851004  RH  054%=      5-min Rain = 0
KGHS 141735Z 06015G20KT 09/M00 A3038 RMK A01 T00871004  RH  053%=      5-min Rain = 0
KGHS 141740Z 07017G23KT 09/M01 A3038 RMK A01 T00881005  RH  053%=      5-min Rain = 0
KGHS 141745Z 05021G26KT 09/M01 A3038 RMK A01 T00891005  RH  052%=      5-min Rain = 0
KGHS 141750Z 05019G28KT 09/M01 A3038 RMK A01 T00891005  RH  052%=      5-min Rain = 0
KGHS 141755Z 05020G25KT 09/M01 A3038 RMK A01 T00911005  RH  052%=      5-min Rain = 0
KGHS 141800Z 05020G26KT 09/M01 A3038 RMK A01 T00921005  RH  051%=      5-min Rain = 0
KGHS 141805Z 05016G24KT 09/M00 A3038 RMK A01 T00931003  RH  051%=      5-min Rain = 0
KGHS 141810Z 06019G24KT 09/M01 A3037 RMK A01 T00941006  RH  050%=      5-min Rain = 0
KGHS 141815Z 05017G22KT 09/M01 A3037 RMK A01 T00931005  RH  051%=      5-min Rain = 0
KGHS 141820Z 05015G20KT 09/M00 A3037 RMK A01 T00941004  RH  051%=      5-min Rain = 0
KGHS 141825Z 06018G23KT 10/M01 A3037 RMK A01 T00961005  RH  050%=      5-min Rain = 0
KGHS 141830Z 05017G24KT 10/M01 A3037 RMK A01 T00971006  RH  049%=      5-min Rain = 0
KGHS 141835Z 06018G23KT 10/M01 A3037 RMK A01 T00981007  RH  049%=      5-min Rain = 0
KGHS 141840Z 06016G24KT 10/M01 A3037 RMK A01 T00971006  RH  049%=      5-min Rain = 0
KGHS 141845Z 06018G23KT 10/M01 A3037 RMK A01 T00971006  RH  049%=      5-min Rain = 0
KGHS 141850Z 06014G19KT 10/M01 A3037 RMK A01 T00981005  RH  049%=      5-min Rain = 0
KGHS 141855Z 05014G21KT 10/M00 A3037 RMK A01 T00991004  RH  049%=      5-min Rain = 0
KGHS 141900Z 07015G22KT 10/M00 A3036 RMK A01 T01001004  RH  049%=      5-min Rain = 0
KGHS 141905Z 06013G18KT 10/M00 A3036 RMK A01 T01031003  RH  048%=      5-min Rain = 0
KGHS 141910Z 06015KT 10/M00 A3036 RMK A01 T01021003  RH  048%=      5-min Rain = 0
KGHS 141915Z 06012G19KT 10/M00 A3036 RMK A01 T01031003  RH  048%=      5-min Rain = 0
KGHS 141920Z 06013G18KT 10/M00 A3036 RMK A01 T01041004  RH  048%=      5-min Rain = 0
KGHS 141925Z 06013G19KT 10/M01 A3035 RMK A01 T01031005  RH  048%=      5-min Rain = 0
KGHS 141930Z 06012KT 10/M00 A3035 RMK A01 T01041004  RH  048%=      5-min Rain = 0
KGHS 141935Z 06010G15KT 11/M00 A3035 RMK A01 T01061002  RH  048%=      5-min Rain = 0
KGHS 141940Z 06012G19KT 11/M00 A3035 RMK A01 T01091004  RH  046%=      5-min Rain = 0
KGHS 141945Z 04009G14KT 11/M00 A3035 RMK A01 T01051004  RH  047%=      5-min Rain = 0
KGHS 141950Z 07012KT 11/M00 A3035 RMK A01 T01081004  RH  046%=      5-min Rain = 0
KGHS 141955Z 06011G16KT 11/M00 A3035 RMK A01 T01091004  RH  046%=      5-min Rain = 0
KGHS 142000Z 05011KT 11/M01 A3035 RMK A01 T01071007  RH  046%=      5-min Rain = 0
KGHS 142005Z 06011G18KT 11/M01 A3035 RMK A01 T01061006  RH  046%=      5-min Rain = 0
KGHS 142010Z 06010G16KT 11/M00 A3035 RMK A01 T01091003  RH  046%=      5-min Rain = 0
KGHS 142015Z 06013G18KT 11/M01 A3035 RMK A01 T01091005  RH  046%=      5-min Rain = 0
KGHS 142020Z 04009G14KT 11/M01 A3035 RMK A01 T01091005  RH  046%=      5-min Rain = 0
KGHS 142025Z 07012G17KT 11/M00 A3034 RMK A01 T01101004  RH  046%=      5-min Rain = 0
KGHS 142030Z 07011G16KT 11/M01 A3034 RMK A01 T01091006  RH  046%=      5-min Rain = 0
KGHS 142035Z 06008G13KT 11/M01 A3034 RMK A01 T01091005  RH  046%=      5-min Rain = 0
KGHS 142040Z 07008G15KT 11/M00 A3034 RMK A01 T01111004  RH  045%=      5-min Rain = 0
KGHS 142045Z 07010G16KT 11/M00 A3034 RMK A01 T01101004  RH  045%=      5-min Rain = 0
KGHS 142050Z 07008KT 11/M00 A3034 RMK A01 T01101004  RH  046%=      5-min Rain = 0
KGHS 142055Z 05010G16KT 11/M01 A3034 RMK A01 T01121005  RH  045%=      5-min Rain = 0
KGHS 142100Z 07010KT 11/M01 A3034 RMK A01 T01101005  RH  045%=      5-min Rain = 0
KGHS 142105Z 05011KT 11/M00 A3034 RMK A01 T01101004  RH  046%=      5-min Rain = 0
KGHS 142110Z 04009KT 11/M00 A3034 RMK A01 T01091004  RH  046%=      5-min Rain = 0
KGHS 142115Z 05013G18KT 11/M01 A3034 RMK A01 T01091005  RH  046%=      5-min Rain = 0
KGHS 142120Z 07011G16KT 11/M01 A3034 RMK A01 T01091005  RH  046%=      5-min Rain = 0
KGHS 142125Z 05009KT 11/M00 A3034 RMK A01 T01101004  RH  046%=      5-min Rain = 0
KGHS 142130Z 07012KT 11/M01 A3034 RMK A01 T01091006  RH  045%=      5-min Rain = 0
KGHS 142135Z 07013KT 11/M01 A3034 RMK A01 T01071007  RH  045%=      5-min Rain = 0
KGHS 142140Z 06011G18KT 11/M01 A3034 RMK A01 T01071007  RH  046%=      5-min Rain = 0
KGHS 142145Z 06011KT 11/M01 A3034 RMK A01 T01071006  RH  046%=      5-min Rain = 0
KGHS 142150Z 06010KT 11/M01 A3034 RMK A01 T01101005  RH  046%=      5-min Rain = 0
KGHS 142155Z 06009G14KT 11/M01 A3034 RMK A01 T01101006  RH  045%=      5-min Rain = 0
KGHS 142200Z 06011G16KT 11/M01 A3034 RMK A01 T01081007  RH  045%=      5-min Rain = 0
KGHS 142205Z 06012KT 11/M01 A3034 RMK A01 T01071007  RH  046%=      5-min Rain = 0
KGHS 142210Z 06011KT 11/M01 A3034 RMK A01 T01061006  RH  046%=      5-min Rain = 0
KGHS 142215Z 07009KT 11/M01 A3034 RMK A01 T01071007  RH  046%=      5-min Rain = 0
KGHS 142220Z 07009KT 11/M01 A3034 RMK A01 T01061007  RH  046%=      5-min Rain = 0
KGHS 142225Z 05009KT 11/M01 A3035 RMK A01 T01071006  RH  046%=      5-min Rain = 0
KGHS 142230Z 05010KT 11/M01 A3035 RMK A01 T01061007  RH  046%=      5-min Rain = 0
KGHS 142235Z 06009KT 11/M01 A3035 RMK A01 T01051007  RH  046%=      5-min Rain = 0
KGHS 142240Z 06009KT 11/M01 A3035 RMK A01 T01051006  RH  047%=      5-min Rain = 0
KGHS 142245Z 05009KT 10/M01 A3035 RMK A01 T01041007  RH  047%=      5-min Rain = 0
KGHS 142250Z 05009KT 10/M01 A3035 RMK A01 T01041007  RH  047%=      5-min Rain = 0
KGHS 142255Z 06008KT 10/M01 A3035 RMK A01 T01021008  RH  047%=      5-min Rain = 0
KGHS 142300Z 06006KT 10/M01 A3035 RMK A01 T01011008  RH  047%=      5-min Rain = 0
KGHS 142305Z 06008KT 10/M01 A3035 RMK A01 T01011007  RH  047%=      5-min Rain = 0
KGHS 142310Z 06007KT 10/M01 A3035 RMK A01 T01011006  RH  048%=      5-min Rain = 0
KGHS 142315Z 06008KT 10/M01 A3035 RMK A01 T00991006  RH  048%=      5-min Rain = 0
KGHS 142320Z 06006KT 10/M01 A3036 RMK A01 T00981008  RH  048%=      5-min Rain = 0
KGHS 142325Z 06005KT 10/M01 A3036 RMK A01 T00971008  RH  048%=      5-min Rain = 0
KGHS 142330Z 06005KT 10/M01 A3036 RMK A01 T00971007  RH  049%=      5-min Rain = 0
KGHS 142335Z 06004KT 10/M01 A3036 RMK A01 T00961006  RH  050%=      5-min Rain = 0
KGHS 142340Z 07005KT 09/M01 A3036 RMK A01 T00941005  RH  050%=      5-min Rain = 0
KGHS 142345Z 06005KT 09/M01 A3037 RMK A01 T00921005  RH  051%=      5-min Rain = 0
KGHS 142350Z 07005KT 09/M01 A3037 RMK A01 T00901005  RH  052%=      5-min Rain = 0
KGHS 142355Z 07006KT 09/M01 A3037 RMK A01 T00871005  RH  053%=      5-min Rain = 0
KGHS 150000Z 06005KT 09/M01 A3037 RMK A01 T00861006  RH  053%=      5-min Rain = 0
KGHS 150005Z 07005KT 08/M01 A3037 RMK A01 T00841006  RH  054%=      5-min Rain = 0
KGHS 150010Z 07004KT 08/M01 A3038 RMK A01 T00831006  RH  054%=      5-min Rain = 0
KGHS 150015Z 07005KT 08/M01 A3038 RMK A01 T00821006  RH  054%=      5-min Rain = 0
KGHS 150020Z 06006KT 08/M01 A3038 RMK A01 T00811006  RH  055%=      5-min Rain = 0
KGHS 150025Z 07006KT 08/M01 A3038 RMK A01 T00801007  RH  055%=      5-min Rain = 0
KGHS 150030Z 07006KT 08/M01 A3038 RMK A01 T00801007  RH  055%=      5-min Rain = 0
KGHS 150035Z 07006KT 08/M01 A3038 RMK A01 T00801007  RH  055%=      5-min Rain = 0
KGHS 150040Z 07006KT 08/M01 A3039 RMK A01 T00791007  RH  055%=      5-min Rain = 0
KGHS 150045Z 07005KT 08/M01 A3039 RMK A01 T00791007  RH  055%=      5-min Rain = 0
KGHS 150050Z 07005KT 08/M01 A3039 RMK A01 T00791008  RH  055%=      5-min Rain = 0
KGHS 150055Z 07006KT 08/M01 A3039 RMK A01 T00791008  RH  055%=      5-min Rain = 0
KGHS 150100Z 07005KT 08/M01 A3039 RMK A01 T00781007  RH  055%=      5-min Rain = 0
KGHS 150105Z 08005KT 08/M01 A3039 RMK A01 T00771007  RH  056%=      5-min Rain = 0
KGHS 150110Z 08005KT 08/M01 A304 RMK A01 T00761008  RH  056%=      5-min Rain = 0
KGHS 150115Z 08005KT 08/M01 A304 RMK A01 T00751008  RH  056%=      5-min Rain = 0
KGHS 150120Z 07005KT 08/M01 A304 RMK A01 T00751008  RH  056%=      5-min Rain = 0
KGHS 150125Z 07005KT 07/M01 A304 RMK A01 T00741008  RH  057%=      5-min Rain = 0
KGHS 150130Z 08005KT 07/M01 A304 RMK A01 T00741008  RH  057%=      5-min Rain = 0
KGHS 150135Z 07005KT 07/M01 A304 RMK A01 T00731009  RH  057%=      5-min Rain = 0
KGHS 150140Z 07005KT 07/M01 A304 RMK A01 T00731009  RH  057%=      5-min Rain = 0
KGHS 150145Z 07006KT 07/M01 A3041 RMK A01 T00721009  RH  057%=      5-min Rain = 0
KGHS 150150Z 07006KT 07/M01 A3041 RMK A01 T00711009  RH  057%=      5-min Rain = 0
KGHS 150155Z 07005KT 07/M01 A3041 RMK A01 T00701009  RH  058%=      5-min Rain = 0
KGHS 150200Z 07005KT 07/M01 A3041 RMK A01 T00701009  RH  058%=      5-min Rain = 0
KGHS 150205Z 07005KT 07/M01 A3041 RMK A01 T00691009  RH  058%=      5-min Rain = 0
KGHS 150210Z 07005KT 07/M01 A3041 RMK A01 T00691009  RH  058%=      5-min Rain = 0
KGHS 150215Z 07005KT 07/M01 A3041 RMK A01 T00681009  RH  058%=      5-min Rain = 0
KGHS 150220Z 08004KT 07/M01 A3041 RMK A01 T00681010  RH  058%=      5-min Rain = 0
KGHS 150225Z 08004KT 07/M01 A3041 RMK A01 T00691010  RH  058%=      5-min Rain = 0
KGHS 150230Z 09003KT 07/M01 A3041 RMK A01 T00701010  RH  057%=      5-min Rain = 0
KGHS 150235Z 09002KT 07/M01 A3041 RMK A01 T00701011  RH  057%=      5-min Rain = 0
KGHS 150240Z 08002KT 07/M01 A3042 RMK A01 T00701011  RH  057%=      5-min Rain = 0
KGHS 150245Z 08002KT 07/M01 A3042 RMK A01 T00691011  RH  057%=      5-min Rain = 0
KGHS 150250Z 10002KT 07/M01 A3042 RMK A01 T00701011  RH  057%=      5-min Rain = 0
KGHS 150255Z 09002KT 07/M01 A3042 RMK A01 T00701011  RH  057%=      5-min Rain = 0
KGHS 150300Z 08003KT 07/M01 A3042 RMK A01 T00701012  RH  056%=      5-min Rain = 0
KGHS 150305Z 09003KT 07/M01 A3042 RMK A01 T00701012  RH  057%=      5-min Rain = 0
KGHS 150310Z 08003KT 07/M01 A3042 RMK A01 T00701012  RH  057%=      5-min Rain = 0
KGHS 150315Z 08003KT 07/M01 A3042 RMK A01 T00701012  RH  057%=      5-min Rain = 0
KGHS 150320Z 08003KT 07/M01 A3042 RMK A01 T00701012  RH  056%=      5-min Rain = 0
KGHS 150325Z 08004KT 07/M01 A3043 RMK A01 T00711012  RH  056%=      5-min Rain = 0
KGHS 150330Z 08003KT 07/M01 A3043 RMK A01 T00711012  RH  056%=      5-min Rain = 0
KGHS 150335Z 09002KT 07/M01 A3043 RMK A01 T00711013  RH  056%=      5-min Rain = 0
KGHS 150340Z 07002KT 07/M01 A3043 RMK A01 T00701013  RH  056%=      5-min Rain = 0
KGHS 150345Z 08002KT 07/M01 A3043 RMK A01 T00681014  RH  056%=      5-min Rain = 0
KGHS 150350Z 11002KT 07/M01 A3043 RMK A01 T00671013  RH  057%=      5-min Rain = 0
KGHS 150355Z 10002KT 07/M01 A3043 RMK A01 T00661013  RH  057%=      5-min Rain = 0
KGHS 150400Z 11002KT 07/M01 A3043 RMK A01 T00651013  RH  058%=      5-min Rain = 0
KGHS 150405Z 12002KT 07/M01 A3043 RMK A01 T00661013  RH  058%=      5-min Rain = 0
KGHS 150410Z 13002KT 07/M01 A3043 RMK A01 T00661013  RH  058%=      5-min Rain = 0
KGHS 150415Z 11003KT 07/M01 A3043 RMK A01 T00671013  RH  057%=      5-min Rain = 0
KGHS 150420Z 11002KT 07/M01 A3043 RMK A01 T00681013  RH  057%=      5-min Rain = 0
KGHS 150425Z 11002KT 07/M01 A3043 RMK A01 T00681013  RH  057%=      5-min Rain = 0
KGHS 150430Z 12002KT 07/M01 A3043 RMK A01 T00671013  RH  057%=      5-min Rain = 0
KGHS 150435Z 21001KT 06/M01 A3043 RMK A01 T00611013  RH  060%=      5-min Rain = 0
KGHS 150440Z 27002KT 04/M01 A3043 RMK A01 T00421009  RH  070%=      5-min Rain = 0
KGHS 150445Z 27002KT 04/M01 A3043 RMK A01 T00411009  RH  071%=      5-min Rain = 0
KGHS 150450Z 25000KT 04/M01 A3042 RMK A01 T00431009  RH  070%=      5-min Rain = 0
KGHS 150455Z 21000KT 04/M01 A3043 RMK A01 T00441009  RH  069%=      5-min Rain = 0
KGHS 150500Z 27001KT 04/M01 A3043 RMK A01 T00431009  RH  070%=      5-min Rain = 0
KGHS 150505Z 26001KT 04/M01 A3043 RMK A01 T00431008  RH  070%=      5-min Rain = 0
KGHS 150510Z 28001KT 05/M01 A3043 RMK A01 T00451009  RH  069%=      5-min Rain = 0
KGHS 150515Z 28003KT 04/M01 A3043 RMK A01 T00431009  RH  070%=      5-min Rain = 0
KGHS 150520Z 28004KT 04/M01 A3043 RMK A01 T00411009  RH  071%=      5-min Rain = 0
KGHS 150525Z 28003KT 04/M01 A3043 RMK A01 T00391009  RH  072%=      5-min Rain = 0
KGHS 150530Z 28004KT 04/M01 A3043 RMK A01 T00391009  RH  072%=      5-min Rain = 0
KGHS 150535Z 27004KT 04/M01 A3043 RMK A01 T00381009  RH  072%=      5-min Rain = 0
KGHS 150540Z 27005KT 04/M01 A3043 RMK A01 T00361009  RH  073%=      5-min Rain = 0
KGHS 150545Z 27004KT 04/M01 A3043 RMK A01 T00351009  RH  073%=      5-min Rain = 0
KGHS 150550Z 27004KT 04/M01 A3043 RMK A01 T00361010  RH  072%=      5-min Rain = 0
KGHS 150555Z 26004KT 04/M01 A3043 RMK A01 T00361010  RH  073%=      5-min Rain = 0

Page generated in 0.011 seconds.